createdAt,value
2017-12-27T00:01:13.340Z,3.20
2017-12-27T00:03:59.989Z,3.30
2017-12-27T00:06:43.685Z,3.30
2017-12-27T00:09:33.863Z,3.20
2017-12-27T00:24:04.802Z,3.30
2017-12-27T00:35:16.096Z,3.50
2017-12-27T00:37:59.746Z,3.50
2017-12-27T00:40:45.869Z,3.50
2017-12-27T00:43:21.836Z,3.50
2017-12-27T00:49:14.023Z,3.50
2017-12-27T00:51:52.351Z,3.60
2017-12-27T00:54:30.404Z,3.70
2017-12-27T00:57:10.340Z,3.70
2017-12-27T00:59:49.028Z,3.70
2017-12-27T01:05:05.688Z,3.80
2017-12-27T01:07:46.049Z,3.80
2017-12-27T01:10:24.323Z,3.80
2017-12-27T01:15:44.758Z,3.90
2017-12-27T01:21:18.798Z,3.90
2017-12-27T01:24:03.798Z,3.90
2017-12-27T01:49:57.532Z,4.00
2017-12-27T01:52:39.072Z,4.10
2017-12-27T01:55:18.779Z,4.10
2017-12-27T02:06:58.972Z,4.10
2017-12-27T02:09:36.430Z,4.10
2017-12-27T02:12:13.919Z,4.10
2017-12-27T02:14:50.609Z,4.10
2017-12-27T02:17:30.716Z,4.10
2017-12-27T02:20:07.297Z,4.10
2017-12-27T02:22:43.170Z,4.20
2017-12-27T02:25:19.357Z,4.20
2017-12-27T02:27:55.179Z,4.30
2017-12-27T02:30:31.023Z,4.30
2017-12-27T02:33:08.253Z,4.30
2017-12-27T02:35:43.790Z,4.30
2017-12-27T02:38:20.041Z,4.40
2017-12-27T02:40:56.749Z,4.40
2017-12-27T02:46:15.612Z,4.40
2017-12-27T02:48:53.026Z,4.40
2017-12-27T02:51:28.018Z,4.40
2017-12-27T02:56:46.768Z,4.40
2017-12-27T02:59:22.141Z,4.40
2017-12-27T03:01:57.804Z,4.40
2017-12-27T03:04:37.229Z,4.40
2017-12-27T03:07:12.867Z,4.40
2017-12-27T03:09:48.390Z,4.40
2017-12-27T03:12:26.103Z,4.40
2017-12-27T03:15:00.746Z,4.40
2017-12-27T03:17:35.595Z,4.40
2017-12-27T03:20:12.262Z,4.40
2017-12-27T03:25:41.495Z,4.40
2017-12-27T03:31:13.962Z,4.40
2017-12-27T03:33:58.817Z,4.40
2017-12-27T03:36:36.520Z,4.40
2017-12-27T03:39:14.493Z,4.30
2017-12-27T03:41:59.838Z,4.30
2017-12-27T03:44:35.918Z,4.30
2017-12-27T03:47:13.015Z,4.30
2017-12-27T03:56:02.965Z,4.40
2017-12-27T03:58:37.411Z,4.40
2017-12-27T04:07:18.741Z,4.40
2017-12-27T04:15:17.051Z,4.30
2017-12-27T04:17:54.016Z,4.30
2017-12-27T04:20:29.799Z,4.30
2017-12-27T04:23:03.875Z,4.30
2017-12-27T04:25:37.675Z,4.30
2017-12-27T04:28:14.331Z,4.40
2017-12-27T04:33:29.295Z,4.40
2017-12-27T04:36:05.847Z,4.30
2017-12-27T04:38:40.268Z,4.40
2017-12-27T04:41:16.228Z,4.30
2017-12-27T04:43:50.914Z,4.30
2017-12-27T04:46:26.250Z,4.30
2017-12-27T04:49:01.373Z,4.30
2017-12-27T04:51:37.472Z,4.30
2017-12-27T04:54:13.015Z,4.40
2017-12-27T04:56:48.891Z,4.40
2017-12-27T04:59:24.757Z,4.40
2017-12-27T05:02:00.457Z,4.50
2017-12-27T05:04:38.256Z,4.50
2017-12-27T05:07:14.012Z,4.50
2017-12-27T05:12:32.814Z,4.50
2017-12-27T05:15:13.040Z,4.50
2017-12-27T05:17:51.554Z,4.50
2017-12-27T05:23:10.076Z,4.40
2017-12-27T05:25:52.032Z,4.40
2017-12-27T05:28:27.866Z,4.40
2017-12-27T05:31:04.832Z,4.40
2017-12-27T05:33:39.518Z,4.40
2017-12-27T05:36:15.156Z,4.40
2017-12-27T05:41:52.948Z,4.40
2017-12-27T05:44:29.661Z,4.30
2017-12-27T05:47:05.433Z,4.40
2017-12-27T05:49:45.849Z,4.30
2017-12-27T06:00:27.971Z,4.30
2017-12-27T06:03:13.208Z,4.40
2017-12-27T06:05:48.073Z,4.50
2017-12-27T06:08:23.695Z,4.50
2017-12-27T06:11:05.554Z,4.50
2017-12-27T06:13:40.584Z,4.50
2017-12-27T06:16:23.473Z,4.50
2017-12-27T06:18:59.445Z,4.60
2017-12-27T06:21:43.833Z,4.50
2017-12-27T06:24:36.585Z,4.60
2017-12-27T06:27:12.126Z,4.60
2017-12-27T06:29:49.787Z,4.60
2017-12-27T06:32:25.532Z,4.60
2017-12-27T06:35:04.359Z,4.50
2017-12-27T06:37:45.674Z,4.50
2017-12-27T06:45:44.934Z,4.50
2017-12-27T06:48:23.245Z,4.50
2017-12-27T06:57:09.034Z,4.60
2017-12-27T06:59:58.420Z,4.60
2017-12-27T07:05:32.691Z,4.70
2017-12-27T07:08:07.813Z,4.70
2017-12-27T07:10:41.768Z,4.70
2017-12-27T07:13:16.223Z,4.80
2017-12-27T07:15:52.520Z,4.80
2017-12-27T07:33:03.240Z,5.20
2017-12-27T07:35:38.874Z,5.30
2017-12-27T07:38:13.768Z,5.40
2017-12-27T07:40:47.572Z,5.50
2017-12-27T07:43:25.352Z,5.50
2017-12-27T07:46:01.805Z,5.50
2017-12-27T07:48:41.003Z,5.50
2017-12-27T08:00:32.624Z,5.50
2017-12-27T08:03:16.193Z,5.50
2017-12-27T08:05:50.472Z,5.40
2017-12-27T08:08:33.924Z,5.40
2017-12-27T08:11:13.875Z,5.30
2017-12-27T08:34:59.810Z,5.50
2017-12-27T08:46:31.571Z,5.70
2017-12-27T08:49:07.182Z,5.70
2017-12-27T08:51:42.563Z,5.70
2017-12-27T08:54:18.766Z,5.80
2017-12-27T08:56:52.907Z,5.80
2017-12-27T08:59:28.355Z,5.90
2017-12-27T09:04:45.762Z,6.00
2017-12-27T09:07:19.537Z,6.00
2017-12-27T09:09:54.867Z,6.00
2017-12-27T09:12:28.611Z,6.10
2017-12-27T09:15:02.660Z,6.10
2017-12-27T09:17:38.608Z,6.20
2017-12-27T09:20:13.124Z,6.20
2017-12-27T09:22:46.782Z,6.20
2017-12-27T09:25:23.425Z,6.20
2017-12-27T09:27:59.143Z,6.20
2017-12-27T09:30:33.829Z,6.20
2017-12-27T09:33:08.479Z,6.20
2017-12-27T09:38:29.410Z,6.20
2017-12-27T09:41:04.848Z,6.30
2017-12-27T09:43:41.467Z,6.30
2017-12-27T09:46:18.807Z,6.40
2017-12-27T09:48:55.731Z,6.40
2017-12-27T09:51:33.816Z,6.40
2017-12-27T09:56:53.929Z,6.60
2017-12-27T10:02:35.615Z,6.60
2017-12-27T10:05:13.664Z,6.70
2017-12-27T10:07:47.736Z,6.80
2017-12-27T10:10:25.082Z,6.80
2017-12-27T10:16:24.745Z,6.80
2017-12-27T10:25:04.804Z,7.00
2017-12-27T10:27:44.798Z,7.00
2017-12-27T10:30:24.414Z,7.00
2017-12-27T10:37:13.733Z,7.30
2017-12-27T10:39:51.132Z,7.30
2017-12-27T10:42:24.854Z,7.40
2017-12-27T10:45:03.221Z,7.50
2017-12-27T10:47:37.847Z,7.70
2017-12-27T10:50:14.084Z,7.60
2017-12-27T10:52:52.668Z,7.60
2017-12-27T10:58:24.743Z,7.50
2017-12-27T11:01:02.361Z,7.60
2017-12-27T11:03:37.482Z,7.60
2017-12-27T11:06:12.471Z,7.70
2017-12-27T11:08:59.856Z,7.80
2017-12-27T11:11:35.127Z,8.00
2017-12-27T11:14:09.178Z,8.00
2017-12-27T11:16:47.134Z,8.00
2017-12-27T11:19:22.812Z,8.00
2017-12-27T11:22:00.504Z,8.00
2017-12-27T11:24:40.819Z,8.10
2017-12-27T11:29:59.566Z,8.00
2017-12-27T11:35:43.581Z,8.10
2017-12-27T11:41:28.007Z,8.00
2017-12-27T11:44:05.608Z,8.00
2017-12-27T11:52:46.183Z,8.10
2017-12-27T11:55:22.233Z,8.20
2017-12-27T11:57:56.760Z,8.20
2017-12-27T12:00:42.026Z,8.10
2017-12-27T12:05:55.685Z,8.10
2017-12-27T12:08:30.541Z,8.20
2017-12-27T12:11:06.976Z,8.20
2017-12-27T12:13:42.654Z,8.20
2017-12-27T12:16:17.491Z,8.20
2017-12-27T12:18:53.952Z,8.20
2017-12-27T12:21:27.646Z,8.20
2017-12-27T12:24:02.514Z,8.20
2017-12-27T12:26:37.770Z,8.10
2017-12-27T12:29:12.955Z,8.10
2017-12-27T12:34:28.967Z,8.20
2017-12-27T12:42:48.737Z,8.20
2017-12-27T12:45:25.990Z,8.30
2017-12-27T12:48:02.399Z,8.30
2017-12-27T12:50:36.267Z,8.40
2017-12-27T12:53:11.580Z,8.50
2017-12-27T12:55:45.864Z,8.70
2017-12-27T12:58:20.933Z,8.70
2017-12-27T13:00:57.272Z,8.80
2017-12-27T13:03:34.138Z,8.70
2017-12-27T13:06:08.032Z,8.80
2017-12-27T13:08:41.708Z,8.90
2017-12-27T13:11:15.878Z,8.80
2017-12-27T13:13:51.141Z,8.70
2017-12-27T13:16:28.352Z,8.70
2017-12-27T13:19:03.125Z,8.60
2017-12-27T13:21:38.639Z,8.60
2017-12-27T13:24:19.943Z,8.50
2017-12-27T13:26:56.221Z,8.50
2017-12-27T13:29:31.172Z,8.50
2017-12-27T13:32:07.025Z,8.50
2017-12-27T13:34:42.775Z,8.40
2017-12-27T13:37:18.379Z,8.40
2017-12-27T13:39:52.051Z,8.40
2017-12-27T13:42:28.012Z,8.30
2017-12-27T13:45:08.333Z,8.30
2017-12-27T13:47:43.355Z,8.40
2017-12-27T13:50:19.250Z,8.30
2017-12-27T13:52:53.365Z,8.20
2017-12-27T13:55:29.664Z,8.10
2017-12-27T13:58:11.907Z,8.00
2017-12-27T14:00:48.705Z,8.00
2017-12-27T14:03:24.175Z,7.90
2017-12-27T14:05:59.665Z,7.80
2017-12-27T14:08:37.894Z,7.80
2017-12-27T14:11:11.761Z,7.80
2017-12-27T14:13:46.214Z,7.70
2017-12-27T14:16:21.927Z,7.70
2017-12-27T14:18:56.831Z,7.70
2017-12-27T14:21:30.607Z,7.60
2017-12-27T14:24:08.572Z,7.60
2017-12-27T14:26:47.440Z,7.60
2017-12-27T14:29:24.278Z,7.60
2017-12-27T14:32:03.555Z,7.50
2017-12-27T14:34:40.726Z,7.40
2017-12-27T14:37:19.821Z,7.40
2017-12-27T14:39:53.881Z,7.30
2017-12-27T14:42:32.354Z,7.30
2017-12-27T14:45:07.347Z,7.30
2017-12-27T14:47:41.277Z,7.20
2017-12-27T14:50:15.062Z,7.20
2017-12-27T14:52:51.478Z,7.20
2017-12-27T14:55:26.232Z,7.10
2017-12-27T14:58:00.673Z,7.10
2017-12-27T15:00:34.503Z,7.10
2017-12-27T15:03:08.202Z,7.00
2017-12-27T15:05:41.906Z,7.00
2017-12-27T15:08:15.507Z,7.00
2017-12-27T15:10:51.551Z,7.00
2017-12-27T15:13:26.089Z,7.00
2017-12-27T15:15:59.908Z,6.90
2017-12-27T15:18:34.785Z,7.00
2017-12-27T15:21:08.567Z,7.00
2017-12-27T15:23:42.353Z,7.00
2017-12-27T15:26:17.954Z,7.10
2017-12-27T15:28:51.539Z,7.00
2017-12-27T15:31:25.194Z,7.00
2017-12-27T15:33:59.968Z,7.10
2017-12-27T15:39:13.987Z,7.00
2017-12-27T15:41:50.592Z,7.00
2017-12-27T15:44:24.270Z,7.00
2017-12-27T15:47:00.538Z,7.10
2017-12-27T15:49:35.863Z,7.00
2017-12-27T15:52:11.204Z,7.00
2017-12-27T15:54:47.776Z,7.00
2017-12-27T15:57:24.940Z,6.90
2017-12-27T16:00:00.954Z,6.90
2017-12-27T16:11:30.299Z,6.80
2017-12-27T16:14:07.189Z,6.70
2017-12-27T16:16:42.572Z,6.70
2017-12-27T16:19:21.673Z,6.60
2017-12-27T16:21:58.229Z,6.60
2017-12-27T16:24:33.740Z,6.60
2017-12-27T16:30:07.769Z,6.60
2017-12-27T16:32:45.878Z,6.60
2017-12-27T16:35:21.276Z,6.60
2017-12-27T16:37:54.924Z,6.60
2017-12-27T16:40:30.312Z,6.60
2017-12-27T16:43:07.779Z,6.60
2017-12-27T16:45:42.213Z,6.60
2017-12-27T16:48:15.866Z,6.60
2017-12-27T16:50:49.834Z,6.60
2017-12-27T16:53:23.798Z,6.60
2017-12-27T16:55:57.480Z,6.60
2017-12-27T16:58:32.743Z,6.60
2017-12-27T17:01:07.676Z,6.60
2017-12-27T17:03:43.327Z,6.60
2017-12-27T17:06:17.121Z,6.60
2017-12-27T17:08:52.312Z,6.60
2017-12-27T17:11:29.566Z,6.60
2017-12-27T17:14:09.861Z,6.60
2017-12-27T17:16:46.432Z,6.60
2017-12-27T17:19:22.024Z,6.60
2017-12-27T17:21:55.855Z,6.60
2017-12-27T17:24:31.215Z,6.40
2017-12-27T17:27:05.720Z,6.40
2017-12-27T17:29:40.820Z,6.40
2017-12-27T17:32:14.884Z,6.30
2017-12-27T17:34:49.327Z,6.30
2017-12-27T17:37:27.119Z,6.20
2017-12-27T17:40:03.342Z,6.20
2017-12-27T17:42:37.237Z,6.10
2017-12-27T17:45:11.559Z,6.10
2017-12-27T17:47:45.375Z,6.10
2017-12-27T17:50:20.660Z,6.10
2017-12-27T17:52:54.662Z,6.00
2017-12-27T17:55:30.782Z,6.00
2017-12-27T17:58:05.286Z,6.00
2017-12-27T18:00:39.761Z,6.00
2017-12-27T18:03:13.637Z,6.00
2017-12-27T18:05:48.869Z,6.00
2017-12-27T18:08:22.826Z,6.00
2017-12-27T18:10:57.516Z,6.00
2017-12-27T18:13:32.174Z,6.00
2017-12-27T18:16:08.085Z,5.90
2017-12-27T18:18:43.724Z,5.80
2017-12-27T18:21:20.965Z,5.80
2017-12-27T18:23:54.672Z,5.80
2017-12-27T18:26:28.647Z,5.70
2017-12-27T18:29:02.383Z,5.60
2017-12-27T18:31:36.084Z,5.50
2017-12-27T18:34:10.968Z,5.40
2017-12-27T18:36:44.693Z,5.30
2017-12-27T18:39:18.291Z,5.20
2017-12-27T18:41:51.966Z,5.20
2017-12-27T18:44:25.772Z,5.20
2017-12-27T18:47:00.344Z,5.20
2017-12-27T18:49:33.912Z,5.20
2017-12-27T18:52:07.718Z,5.20
2017-12-27T18:54:41.557Z,5.30
2017-12-27T18:57:15.978Z,5.50
2017-12-27T18:59:49.813Z,5.60
2017-12-27T19:02:23.549Z,5.70
2017-12-27T19:04:57.477Z,5.80
2017-12-27T19:07:31.264Z,5.70
2017-12-27T19:10:05.258Z,5.60
2017-12-27T19:12:40.464Z,5.60
2017-12-27T19:15:14.234Z,5.50
2017-12-27T19:17:48.008Z,5.30
2017-12-27T19:20:21.762Z,5.30
2017-12-27T19:22:55.525Z,5.20
2017-12-27T19:25:30.182Z,5.10
2017-12-27T19:28:04.468Z,5.00
2017-12-27T19:30:38.446Z,4.90
2017-12-27T19:33:12.912Z,4.90
2017-12-27T19:35:46.733Z,4.90
2017-12-27T19:38:21.482Z,4.90
2017-12-27T19:40:56.349Z,5.00
2017-12-27T19:43:31.251Z,5.10
2017-12-27T19:46:05.148Z,5.20
2017-12-27T19:48:39.201Z,5.30
2017-12-27T19:51:13.085Z,5.40
2017-12-27T19:53:46.778Z,5.40
2017-12-27T19:56:20.817Z,5.40
2017-12-27T19:58:54.597Z,5.50
2017-12-27T20:01:29.629Z,5.50
2017-12-27T20:04:07.361Z,5.50
2017-12-27T20:06:41.988Z,5.60
2017-12-27T20:09:15.769Z,5.70
2017-12-27T20:11:49.517Z,5.80
2017-12-27T20:14:23.541Z,5.80
2017-12-27T20:16:58.492Z,5.80
2017-12-27T20:22:13.009Z,5.90
2017-12-27T20:24:47.080Z,5.90
2017-12-27T20:27:22.893Z,5.90
2017-12-27T20:32:35.666Z,5.90
2017-12-27T20:35:11.682Z,5.80
2017-12-27T20:37:47.092Z,5.80
2017-12-27T20:40:21.537Z,5.80
2017-12-27T20:42:55.469Z,5.80
2017-12-27T20:45:29.755Z,5.80
2017-12-27T20:48:04.897Z,5.70
2017-12-27T20:50:40.686Z,5.60
2017-12-27T20:53:14.511Z,5.60
2017-12-27T20:55:48.231Z,5.60
2017-12-27T20:58:24.800Z,5.60
2017-12-27T21:00:59.355Z,5.60
2017-12-27T21:03:33.337Z,5.70
2017-12-27T21:06:08.701Z,5.70
2017-12-27T21:08:43.407Z,5.70
2017-12-27T21:11:18.393Z,5.70
2017-12-27T21:13:52.998Z,5.70
2017-12-27T21:16:26.669Z,5.70
2017-12-27T21:19:00.571Z,5.70
2017-12-27T21:21:35.413Z,5.70
2017-12-27T21:24:09.135Z,5.70
2017-12-27T21:26:43.414Z,5.60
2017-12-27T21:29:17.648Z,5.60
2017-12-27T21:31:52.401Z,5.50
2017-12-27T21:34:35.811Z,5.40
2017-12-27T21:37:10.313Z,5.30
2017-12-27T21:39:44.733Z,5.20
2017-12-27T21:42:23.124Z,5.10
2017-12-27T21:44:57.905Z,4.90
2017-12-27T21:47:41.593Z,4.80
2017-12-27T21:50:15.406Z,4.70
2017-12-27T21:52:49.208Z,4.60
2017-12-27T21:55:25.178Z,4.40
2017-12-27T21:58:04.701Z,4.40
2017-12-27T22:01:04.413Z,4.30
2017-12-27T22:03:38.944Z,4.20
2017-12-27T22:06:13.352Z,4.10
2017-12-27T22:08:48.813Z,4.10
2017-12-27T22:11:24.451Z,4.10
2017-12-27T22:14:00.277Z,4.10
2017-12-27T22:16:34.684Z,4.10
2017-12-27T22:19:09.299Z,4.20
2017-12-27T22:21:44.646Z,4.20
2017-12-27T22:24:18.414Z,4.10
2017-12-27T22:26:53.026Z,4.20
2017-12-27T22:29:27.545Z,4.20
2017-12-27T22:32:01.289Z,4.20
2017-12-27T22:34:34.991Z,4.20
2017-12-27T22:37:08.807Z,4.20
2017-12-27T22:39:42.864Z,4.30
2017-12-27T22:42:16.631Z,4.50
2017-12-27T22:44:52.156Z,4.60
2017-12-27T22:47:25.818Z,4.60
2017-12-27T22:50:00.456Z,4.70
2017-12-27T22:52:34.224Z,4.70
2017-12-27T22:55:08.993Z,4.70
2017-12-27T22:57:46.597Z,4.70
2017-12-27T23:00:20.425Z,4.80
2017-12-27T23:02:54.773Z,4.80
2017-12-27T23:05:30.869Z,4.80
2017-12-27T23:08:05.738Z,4.80
2017-12-27T23:10:39.434Z,4.70
2017-12-27T23:13:13.203Z,4.60
2017-12-27T23:15:47.066Z,4.60
2017-12-27T23:18:21.579Z,4.40
2017-12-27T23:20:55.253Z,4.40
2017-12-27T23:23:29.095Z,4.40
2017-12-27T23:26:02.940Z,4.30
2017-12-27T23:28:37.596Z,4.30
2017-12-27T23:31:11.400Z,4.30
2017-12-27T23:33:45.203Z,4.30
2017-12-27T23:36:20.677Z,4.30
2017-12-27T23:38:54.459Z,4.40
2017-12-27T23:41:31.971Z,4.40
2017-12-27T23:44:07.026Z,4.40
2017-12-27T23:46:41.737Z,4.40
2017-12-27T23:49:16.408Z,4.30
2017-12-27T23:51:52.727Z,4.20
2017-12-27T23:54:26.328Z,4.20
2017-12-27T23:57:00.163Z,4.10
2017-12-27T23:59:34.006Z,4.10
